^^
Grace C. Lehan Memorial Weather Station Historical Data
Daily Summary for June 21, 2022 Units:  English    Metric   Both
Daily Weekly Monthly Yearly
  High: Low: Average:
Temperature: 74.2 °F 56.4 °F 66.9 °F
Dew Point: 62.4 °F 51.4 °F 56.5 °F
Humidity: 86% 57.6% 70%
Wind Speed: 0.9mph 0mph 0mph
Wind Gust: 5mph - -
Wind- - WSW
Pressure: 30.14 in 30.06 in -
Precipitation: 0.00 in    
 
 
Tabular Data for June 21, 2022
Time Temperature Dew Point Pressure Wind Wind Speed Wind Gust Humidity Rainfall Rate (Hourly) solar
00:04 65.8 °F 52.4 °F 30.07 in Calm     62% 0.00 in 0 W/m2
00:09 65.7 °F 52.7 °F 30.07 in Calm   1 mph 62.7% 0.00 in 0 W/m2
00:14 65.6 °F 52.7 °F 30.07 in Calm   1 mph 63.1% 0.00 in 0 W/m2
00:19 65.4 °F 52.9 °F 30.07 in Calm   1 mph 64% 0.00 in 0 W/m2
00:24 65.2 °F 52.6 °F 30.07 in Calm   1 mph 63.7% 0.00 in 0 W/m2
00:29 65.1 °F 52.3 °F 30.07 in Calm   1 mph 63.3% 0.00 in 0 W/m2
00:34 65 °F 52.3 °F 30.07 in Calm   1 mph 63.5% 0.00 in 0 W/m2
00:39 64.9 °F 52.5 °F 30.07 in Calm     64% 0.00 in 0 W/m2
00:44 64.9 °F 52.4 °F 30.08 in Calm     64% 0.00 in 0 W/m2
00:49 64.7 °F 52.3 °F 30.08 in Calm     64% 0.00 in 0 W/m2
00:54 64.7 °F 52.5 °F 30.07 in Calm     64.6% 0.00 in 0 W/m2
00:59 64.6 °F 53 °F 30.07 in Calm     65.9% 0.00 in 0 W/m2
01:04 64.5 °F 52.9 °F 30.07 in Calm     66% 0.00 in 0 W/m2
01:09 64.3 °F 52.7 °F 30.07 in Calm     66% 0.00 in 0 W/m2
01:14 64.2 °F 52.6 °F 30.07 in Calm     66% 0.00 in 0 W/m2
01:19 64.1 °F 52.9 °F 30.06 in Calm     67% 0.00 in 0 W/m2
01:24 63.9 °F 52.9 °F 30.06 in Calm     67.5% 0.00 in 0 W/m2
01:29 63.7 °F 53.1 °F 30.06 in Calm     68.4% 0.00 in 0 W/m2
01:34 63.5 °F 53.2 °F 30.06 in Calm     69.3% 0.00 in 0 W/m2
01:39 63.2 °F 53 °F 30.06 in Calm     69.2% 0.00 in 0 W/m2
01:44 63 °F 52.5 °F 30.06 in Calm     68.5% 0.00 in 0 W/m2
01:49 62.9 °F 52.5 °F 30.06 in Calm     69% 0.00 in 0 W/m2
01:54 62.7 °F 52.8 °F 30.06 in Calm     70% 0.00 in 0 W/m2
01:59 62.5 °F 52.6 °F 30.06 in Calm     70% 0.00 in 0 W/m2
02:04 62.4 °F 52.4 °F 30.06 in Calm     69.8% 0.00 in 0 W/m2
02:09 62.3 °F 52.7 °F 30.07 in Calm     70.8% 0.00 in 0 W/m2
02:14 62.2 °F 52.8 °F 30.07 in Calm     71.2% 0.00 in 0 W/m2
02:19 62.1 °F 52.9 °F 30.07 in Calm     72% 0.00 in 0 W/m2
02:24 61.9 °F 52.8 °F 30.07 in Calm     72% 0.00 in 0 W/m2
02:29 61.8 °F 52.7 °F 30.07 in Calm     72% 0.00 in 0 W/m2
02:34 61.8 °F 53 °F 30.07 in Calm     73% 0.00 in 0 W/m2
02:39 61.6 °F 53.3 °F 30.07 in Calm     74.2% 0.00 in 0 W/m2
02:44 61.4 °F 53 °F 30.07 in Calm     74.1% 0.00 in 0 W/m2
02:49 61.1 °F 53.2 °F 30.07 in Calm     75% 0.00 in 0 W/m2
02:54 60.9 °F 52.9 °F 30.07 in Calm     75% 0.00 in 0 W/m2
02:59 60.7 °F 52.7 °F 30.07 in Calm     75% 0.00 in 0 W/m2
03:04 60.5 °F 52.7 °F 30.07 in Calm     75.5% 0.00 in 0 W/m2
03:09 60.4 °F 52.8 °F 30.07 in Calm     76% 0.00 in 0 W/m2
03:14 60.2 °F 52.6 °F 30.07 in Calm     75.9% 0.00 in 0 W/m2
03:19 60 °F 52.4 °F 30.06 in Calm     75.9% 0.00 in 0 W/m2
03:24 59.9 °F 52.3 °F 30.07 in Calm     76% 0.00 in 0 W/m2
03:29 59.8 °F 52.2 °F 30.07 in Calm     76% 0.00 in 0 W/m2
03:34 59.6 °F 52.3 °F 30.07 in Calm     76.5% 0.00 in 0 W/m2
03:39 59.5 °F 52.3 °F 30.07 in Calm     77% 0.00 in 0 W/m2
03:44 59.3 °F 52.1 °F 30.07 in Calm     77% 0.00 in 0 W/m2
03:49 59.2 °F 52.2 °F 30.07 in Calm     77.6% 0.00 in 0 W/m2
03:54 58.9 °F 52.1 °F 30.07 in Calm     78.1% 0.00 in 0 W/m2
03:59 58.7 °F 52.2 °F 30.08 in Calm     79% 0.00 in 0 W/m2
04:00 58.6 °F 52.1 °F 30.08 in Calm     79% 0.00 in 0 W/m2
04:09 58.3 °F 52.1 °F 30.08 in Calm     79.7% 0.00 in 0 W/m2
04:14 58.1 °F 52 °F 30.08 in Calm     80% 0.00 in 0 W/m2
04:19 58 °F 51.8 °F 30.08 in Calm     80% 0.00 in 0 W/m2
04:24 57.8 °F 52 °F 30.08 in Calm     80.9% 0.00 in 0 W/m2
04:29 57.7 °F 51.9 °F 30.08 in Calm     81% 0.00 in 0 W/m2
04:34 57.6 °F 51.9 °F 30.09 in Calm     81% 0.00 in 0 W/m2
04:39 57.6 °F 51.8 °F 30.08 in Calm     81% 0.00 in 0 W/m2
04:44 57.5 °F 51.8 °F 30.09 in Calm     81% 0.00 in 0 W/m2
04:49 57.5 °F 51.7 °F 30.09 in Calm     81% 0.00 in 0 W/m2
04:54 57.4 °F 51.6 °F 30.09 in Calm     81% 0.00 in 0 W/m2
04:59 57.3 °F 51.6 °F 30.09 in Calm     81% 0.00 in 0 W/m2
05:04 57.3 °F 51.5 °F 30.09 in Calm     81% 0.00 in 0 W/m2
05:09 57.2 °F 51.4 °F 30.09 in Calm     81% 0.00 in 0 W/m2
05:14 57.1 °F 51.5 °F 30.09 in Calm     81.5% 0.00 in 5 W/m2
05:19 57 °F 51.5 °F 30.09 in Calm     82% 0.00 in 5 W/m2
05:24 56.9 °F 51.5 °F 30.09 in Calm     82% 0.00 in 9 W/m2
05:29 56.8 °F 51.5 °F 30.09 in Calm     82.4% 0.00 in 12 W/m2
05:34 56.8 °F 51.7 °F 30.09 in Calm     83% 0.00 in 12 W/m2
05:39 56.7 °F 51.6 °F 30.09 in Calm     83% 0.00 in 16 W/m2
05:44 56.6 °F 51.6 °F 30.09 in Calm     83.3% 0.00 in 21 W/m2
05:49 56.4 °F 51.7 °F 30.10 in Calm     84% 0.00 in 28 W/m2
05:54 56.4 °F 51.6 °F 30.10 in Calm     84% 0.00 in 40 W/m2
05:59 56.4 °F 51.9 °F 30.10 in Calm     84.8% 0.00 in 53 W/m2
06:04 56.4 °F 52 °F 30.11 in Calm     85% 0.00 in 62 W/m2
06:09 56.4 °F 52.1 °F 30.11 in Calm     85.3% 0.00 in 62 W/m2
06:14 56.6 °F 52.4 °F 30.12 in Calm     86% 0.00 in 56 W/m2
06:19 56.7 °F 52.6 °F 30.12 in Calm     86% 0.00 in 63 W/m2
06:24 56.9 °F 52.7 °F 30.12 in Calm     86% 0.00 in 62 W/m2
06:29 57 °F 52.8 °F 30.12 in Calm     85.6% 0.00 in 53 W/m2
06:34 57.3 °F 52.8 °F 30.12 in Calm     85% 0.00 in 51 W/m2
06:39 57.4 °F 52.7 °F 30.12 in Calm   1 mph 84.2% 0.00 in 49 W/m2
06:44 57.6 °F 52.5 °F 30.12 in Calm   1 mph 83% 0.00 in 53 W/m2
06:49 57.9 °F 52.5 °F 30.12 in Calm   1 mph 82.3% 0.00 in 54 W/m2
06:54 58.1 °F 52.6 °F 30.12 in Calm   1 mph 82% 0.00 in 65 W/m2
06:59 58.3 °F 52.6 °F 30.12 in Calm   1 mph 81.5% 0.00 in 81 W/m2
07:04 58.5 °F 52.7 °F 30.13 in Calm   1 mph 81% 0.00 in 105 W/m2
07:09 58.7 °F 52.8 °F 30.13 in Calm     80.7% 0.00 in 130 W/m2
07:14 59 °F 52.7 °F 30.13 in Calm     79.6% 0.00 in 139 W/m2
07:19 59.2 °F 52.6 °F 30.13 in Calm     78.8% 0.00 in 153 W/m2
07:24 59.5 °F 52.5 °F 30.13 in Calm     77.5% 0.00 in 155 W/m2
07:29 59.8 °F 52.6 °F 30.13 in Calm     77% 0.00 in 156 W/m2
07:34 60.1 °F 52.5 °F 30.13 in ENE 0.2 mph 3 mph 76% 0.00 in 178 W/m2
07:39 60.4 °F 52.8 °F 30.14 in ENE 0.5 mph 4 mph 76% 0.00 in 165 W/m2
07:44 60.6 °F 52.7 °F 30.14 in ENE 0.9 mph 4 mph 75.2% 0.00 in 169 W/m2
07:49 60.9 °F 52.9 °F 30.14 in Calm   4 mph 75% 0.00 in 179 W/m2
07:54 61 °F 53.1 °F 30.13 in Calm   4 mph 75% 0.00 in 209 W/m2
07:59 61.3 °F 53.1 °F 30.13 in Calm   4 mph 74.6% 0.00 in 253 W/m2
08:00 61.4 °F 53.1 °F 30.13 in Calm   4 mph 74% 0.00 in 200 W/m2
08:09 62.1 °F 54.4 °F 30.13 in Calm     75.8% 0.00 in 316 W/m2
08:14 62.6 °F 54.1 °F 30.13 in ENE 0.1 mph 2 mph 73.7% 0.00 in 241 W/m2
08:19 62.9 °F 54.1 °F 30.13 in Calm   2 mph 73% 0.00 in 174 W/m2
08:24 63.1 °F 54.2 °F 30.13 in ENE 0.1 mph 2 mph 72.8% 0.00 in 206 W/m2
08:29 63.2 °F 54 °F 30.13 in NE 0.2 mph 2 mph 72% 0.00 in 308 W/m2
08:34 63.4 °F 54.4 °F 30.13 in Calm   2 mph 72.5% 0.00 in 308 W/m2
08:39 63.8 °F 54.7 °F 30.13 in NE 0.3 mph 2 mph 72.1% 0.00 in 339 W/m2
08:44 64.2 °F 54.7 °F 30.13 in NNE 0.8 mph 5 mph 71.2% 0.00 in 367 W/m2
08:49 64.5 °F 54.5 °F 30.13 in NNW 0.6 mph 5 mph 70.1% 0.00 in 392 W/m2
08:54 64.8 °F 54.9 °F 30.13 in NNW 0.2 mph 5 mph 70.4% 0.00 in 434 W/m2
08:59 65.2 °F 55.4 °F 30.12 in Calm   5 mph 70.5% 0.00 in 371 W/m2
09:04 65.7 °F 55.8 °F 30.12 in Calm   5 mph 70.4% 0.00 in 462 W/m2
09:09 66.1 °F 55.6 °F 30.12 in Calm     68.9% 0.00 in 536 W/m2
09:14 66.5 °F 55.7 °F 30.12 in Calm     68.1% 0.00 in 536 W/m2
09:19 67 °F 55.9 °F 30.12 in NNW 0.1 mph 1 mph 67.7% 0.00 in 629 W/m2
09:24 67.7 °F 57 °F 30.12 in NNW 0.2 mph 2 mph 68.5% 0.00 in 629 W/m2
09:29 68.5 °F 56.6 °F 30.12 in NNW 0.1 mph 2 mph 65.8% 0.00 in 726 W/m2
09:34 69 °F 56.5 °F 30.12 in NNW 0.1 mph 2 mph 64.6% 0.00 in 726 W/m2
09:39 69.4 °F 56.2 °F 30.12 in Calm   2 mph 62.8% 0.00 in 336 W/m2
09:44 69.6 °F 56.4 °F 30.12 in Calm   2 mph 62.8% 0.00 in 281 W/m2
09:49 69.6 °F 55.9 °F 30.12 in Calm   2 mph 61.9% 0.00 in 278 W/m2
09:54 69.4 °F 55.7 °F 30.12 in NNW 0.1 mph 2 mph 61.7% 0.00 in 257 W/m2
09:59 69.3 °F 55.6 °F 30.12 in Calm   2 mph 61.6% 0.00 in 220 W/m2
10:04 69.2 °F 56 °F 30.12 in Calm   2 mph 62.8% 0.00 in 174 W/m2
10:09 69.1 °F 55.8 °F 30.12 in Calm     62.6% 0.00 in 178 W/m2
10:14 69 °F 55.9 °F 30.11 in Calm     63% 0.00 in 186 W/m2
10:19 68.9 °F 56 °F 30.11 in Calm     63.3% 0.00 in 192 W/m2
10:24 68.9 °F 56.2 °F 30.11 in Calm     64% 0.00 in 192 W/m2
10:29 69 °F 56.8 °F 30.11 in Calm     65% 0.00 in 221 W/m2
10:34 68.9 °F 56.4 °F 30.11 in Calm   1 mph 64.4% 0.00 in 243 W/m2
10:39 68.8 °F 56.2 °F 30.11 in NNW 0.1 mph 1 mph 64.1% 0.00 in 278 W/m2
10:44 68.8 °F 56.6 °F 30.11 in Calm   1 mph 65.1% 0.00 in 309 W/m2
10:49 68.9 °F 57.1 °F 30.11 in Calm   1 mph 66% 0.00 in 385 W/m2
10:54 69.1 °F 56.9 °F 30.11 in Calm   1 mph 65.3% 0.00 in 550 W/m2
10:59 69.3 °F 57.5 °F 30.11 in Calm   1 mph 66% 0.00 in 550 W/m2
11:04 69.7 °F 57.8 °F 30.11 in Calm   1 mph 65.8% 0.00 in 540 W/m2
11:09 70.1 °F 57.5 °F 30.11 in Calm     64.3% 0.00 in 496 W/m2
11:14 70.6 °F 57.7 °F 30.10 in Calm     63.6% 0.00 in 468 W/m2
11:19 70.8 °F 57.1 °F 30.10 in Calm     61.7% 0.00 in 401 W/m2
11:24 70.9 °F 56.7 °F 30.11 in Calm     60.8% 0.00 in 434 W/m2
11:29 71.1 °F 57.7 °F 30.11 in Calm     62.6% 0.00 in 443 W/m2
11:34 71.5 °F 57.8 °F 30.11 in Calm     62% 0.00 in 399 W/m2
11:39 71.8 °F 57.7 °F 30.11 in Calm     61.1% 0.00 in 599 W/m2
11:44 72.1 °F 57.6 °F 30.11 in Calm     60.4% 0.00 in 599 W/m2
11:49 72.4 °F 58 °F 30.11 in Calm     60.5% 0.00 in 512 W/m2
11:54 72.7 °F 59.1 °F 30.12 in Calm     62.4% 0.00 in 454 W/m2
11:59 73 °F 58.9 °F 30.12 in NNW 0.5 mph 3 mph 61.4% 0.00 in 432 W/m2
12:00 73.1 °F 58.4 °F 30.12 in Calm   3 mph 60% 0.00 in 323 W/m2
12:09 73.2 °F 58.8 °F 30.12 in Calm     60.7% 0.00 in 311 W/m2
12:14 73.3 °F 58.8 °F 30.12 in Calm     60.5% 0.00 in 304 W/m2
12:19 73.2 °F 58.7 °F 30.12 in NNW 0.3 mph 3 mph 60.3% 0.00 in 295 W/m2
12:24 73.2 °F 58.9 °F 30.13 in NNW 0.1 mph 3 mph 60.9% 0.00 in 323 W/m2
12:29 73.2 °F 59.4 °F 30.12 in NNW 0.4 mph 3 mph 62.1% 0.00 in 369 W/m2
12:34 73.3 °F 59.2 °F 30.12 in NNW 0.2 mph 3 mph 61.4% 0.00 in 364 W/m2
12:39 73.3 °F 59.3 °F 30.12 in NNW 0.3 mph 3 mph 61.5% 0.00 in 334 W/m2
12:44 73.3 °F 59.2 °F 30.12 in Calm   3 mph 61.4% 0.00 in 295 W/m2
12:49 73.3 °F 58.9 °F 30.12 in Calm   3 mph 60.7% 0.00 in 253 W/m2
12:54 73.1 °F 58.1 °F 30.12 in Calm   3 mph 59.2% 0.00 in 250 W/m2
12:59 73.1 °F 59.5 °F 30.12 in NNW 0.1 mph 3 mph 62.5% 0.00 in 253 W/m2
13:04 73 °F 59.4 °F 30.12 in Calm   3 mph 62.4% 0.00 in 278 W/m2
13:09 73 °F 59.6 °F 30.12 in NNW 0.3 mph 3 mph 62.7% 0.00 in 272 W/m2
13:14 73 °F 59.9 °F 30.12 in NNW 0.1 mph 3 mph 63.4% 0.00 in 269 W/m2
13:19 73 °F 60.1 °F 30.12 in Calm   3 mph 64% 0.00 in 272 W/m2
13:24 72.9 °F 59.7 °F 30.12 in Calm   3 mph 63.3% 0.00 in 257 W/m2
13:29 72.9 °F 60.7 °F 30.12 in Calm   3 mph 65.6% 0.00 in 248 W/m2
13:34 72.9 °F 59.9 °F 30.12 in Calm   3 mph 63.9% 0.00 in 301 W/m2
13:39 73 °F 60.3 °F 30.11 in Calm   1 mph 64.5% 0.00 in 315 W/m2
13:44 73.1 °F 60.7 °F 30.11 in Calm   1 mph 65.2% 0.00 in 316 W/m2
13:49 73.1 °F 60.4 °F 30.11 in Calm   1 mph 64.3% 0.00 in 318 W/m2
13:54 73.2 °F 60.8 °F 30.10 in Calm   1 mph 65.2% 0.00 in 336 W/m2
13:59 73.4 °F 60.3 °F 30.10 in Calm   1 mph 63.6% 0.00 in 327 W/m2
14:04 73.3 °F 59.2 °F 30.10 in Calm   1 mph 61.4% 0.00 in 381 W/m2
14:09 73.3 °F 59.8 °F 30.10 in Calm     62.6% 0.00 in 455 W/m2
14:14 73.6 °F 59.9 °F 30.10 in Calm     62.3% 0.00 in 457 W/m2
14:19 73.8 °F 60.2 °F 30.09 in Calm     62.5% 0.00 in 385 W/m2
14:24 74 °F 60 °F 30.09 in NNW 0.3 mph 3 mph 61.5% 0.00 in 304 W/m2
14:29 74 °F 59 °F 30.09 in Calm   3 mph 59.5% 0.00 in 257 W/m2
14:34 74 °F 59.7 °F 30.09 in Calm   3 mph 60.9% 0.00 in 237 W/m2
14:39 74.2 °F 60.5 °F 30.08 in Calm     62.4% 0.00 in 241 W/m2
14:44 74.2 °F 59.8 °F 30.08 in Calm     60.8% 0.00 in 230 W/m2
14:49 74.1 °F 59.7 °F 30.08 in Calm   1 mph 60.7% 0.00 in 216 W/m2
14:54 74 °F 59.5 °F 30.08 in Calm   1 mph 60.6% 0.00 in 199 W/m2
14:59 73.9 °F 59.9 °F 30.08 in NNW 0.1 mph 2 mph 61.7% 0.00 in 171 W/m2
15:04 73.9 °F 59.9 °F 30.08 in NNW 0.2 mph 3 mph 61.6% 0.00 in 142 W/m2
15:09 73.9 °F 60.3 °F 30.08 in Calm   3 mph 62.5% 0.00 in 158 W/m2
15:14 73.9 °F 60 °F 30.08 in Calm   3 mph 61.8% 0.00 in 169 W/m2
15:19 73.9 °F 59.8 °F 30.08 in Calm   3 mph 61.4% 0.00 in 179 W/m2
15:24 73.9 °F 59.7 °F 30.08 in Calm   3 mph 61.1% 0.00 in 151 W/m2
15:29 73.9 °F 58.7 °F 30.07 in Calm   3 mph 59.1% 0.00 in 128 W/m2
15:34 73.8 °F 58.5 °F 30.08 in Calm   3 mph 58.9% 0.00 in 114 W/m2
15:39 73.7 °F 57.9 °F 30.08 in Calm     57.6% 0.00 in 116 W/m2
15:44 73.7 °F 58.4 °F 30.08 in Calm     58.9% 0.00 in 121 W/m2
15:49 73.7 °F 59.1 °F 30.07 in Calm     60.2% 0.00 in 107 W/m2
15:54 73.6 °F 59 °F 30.08 in Calm     60.4% 0.00 in 102 W/m2
15:59 73.5 °F 59 °F 30.08 in Calm     60.4% 0.00 in 120 W/m2
16:00 73.5 °F 59.7 °F 30.07 in Calm     62% 0.00 in 120 W/m2
16:09 73.4 °F 58 °F 30.07 in Calm     58.6% 0.00 in 158 W/m2
16:14 73.5 °F 58.7 °F 30.07 in Calm     60% 0.00 in 181 W/m2
16:19 73.6 °F 60.1 °F 30.07 in Calm     62.6% 0.00 in 204 W/m2
16:24 73.8 °F 61.6 °F 30.07 in Calm     65.5% 0.00 in 200 W/m2
16:29 73.8 °F 61.3 °F 30.07 in Calm     65.1% 0.00 in 183 W/m2
16:34 73.7 °F 60.8 °F 30.07 in Calm     64% 0.00 in 151 W/m2
16:39 73.7 °F 61.3 °F 30.07 in Calm     65.1% 0.00 in 148 W/m2
16:44 73.8 °F 61.9 °F 30.07 in Calm     66.3% 0.00 in 118 W/m2
16:49 73.8 °F 62.1 °F 30.07 in Calm     66.8% 0.00 in 105 W/m2
16:54 73.7 °F 62.4 °F 30.07 in Calm     67.8% 0.00 in 76 W/m2
16:59 73.6 °F 61.6 °F 30.07 in Calm     66.3% 0.00 in 58 W/m2
17:04 73.5 °F 61.5 °F 30.07 in Calm     66.1% 0.00 in 53 W/m2
17:09 73.4 °F 61.5 °F 30.07 in Calm   1 mph 66.3% 0.00 in 51 W/m2
17:14 73.3 °F 62 °F 30.07 in Calm   1 mph 67.8% 0.00 in 42 W/m2
17:19 73.1 °F 61.8 °F 30.08 in Calm   1 mph 67.6% 0.00 in 40 W/m2
17:24 72.9 °F 61.3 °F 30.08 in Calm   1 mph 67.1% 0.00 in 47 W/m2
17:29 72.6 °F 61.3 °F 30.08 in Calm   1 mph 67.5% 0.00 in 60 W/m2
17:34 72.4 °F 61.3 °F 30.08 in Calm   1 mph 68% 0.00 in 65 W/m2
17:39 72.3 °F 61.1 °F 30.07 in Calm     68% 0.00 in 65 W/m2
17:44 72.1 °F 61.3 °F 30.07 in Calm     68.9% 0.00 in 62 W/m2
17:49 71.9 °F 60.9 °F 30.07 in Calm     68.3% 0.00 in 62 W/m2
17:54 71.9 °F 60.6 °F 30.07 in NNW 0.1 mph 2 mph 67.6% 0.00 in 53 W/m2
17:59 71.9 °F 60.6 °F 30.08 in Calm   2 mph 67.7% 0.00 in 58 W/m2
18:04 71.9 °F 61.4 °F 30.07 in Calm   2 mph 69.6% 0.00 in 58 W/m2
18:09 71.9 °F 61.4 °F 30.07 in Calm     69.4% 0.00 in 56 W/m2
18:14 71.9 °F 61.2 °F 30.07 in Calm     69.1% 0.00 in 47 W/m2
18:19 71.8 °F 60.9 °F 30.07 in Calm     68.5% 0.00 in 49 W/m2
18:24 71.7 °F 59.3 °F 30.07 in Calm     64.9% 0.00 in 44 W/m2
18:29 71.6 °F 58.7 °F 30.07 in Calm     63.8% 0.00 in 39 W/m2
18:34 71.7 °F 61.1 °F 30.07 in Calm     69.2% 0.00 in 32 W/m2
18:39 71.7 °F 61.6 °F 30.07 in Calm     70.4% 0.00 in 30 W/m2
18:44 71.7 °F 61.8 °F 30.07 in Calm     71% 0.00 in 30 W/m2
18:49 71.6 °F 62 °F 30.07 in Calm     71.7% 0.00 in 32 W/m2
18:54 71.5 °F 62 °F 30.07 in Calm     72% 0.00 in 49 W/m2
18:59 71.4 °F 61.8 °F 30.07 in Calm     71.8% 0.00 in 53 W/m2
19:04 71.2 °F 61.8 °F 30.07 in Calm     72% 0.00 in 49 W/m2
19:09 71.1 °F 61.7 °F 30.07 in Calm     72.1% 0.00 in 32 W/m2
19:14 71.1 °F 62 °F 30.07 in Calm     73% 0.00 in 25 W/m2
19:19 71.1 °F 62 °F 30.07 in Calm     73% 0.00 in 26 W/m2
19:24 71 °F 62 °F 30.07 in Calm     73.1% 0.00 in 26 W/m2
19:29 70.9 °F 62.2 °F 30.07 in Calm     73.9% 0.00 in 19 W/m2
19:34 70.8 °F 61.8 °F 30.07 in Calm     73% 0.00 in 16 W/m2
20:09 70.1 °F 61.1 °F 30.07 in Calm     73% 0.00 in 0 W/m2
20:14 70 °F 60.5 °F 30.07 in Calm     71.8% 0.00 in 0 W/m2
20:19 69.8 °F 60 °F 30.07 in Calm     71% 0.00 in 0 W/m2
20:24 69.8 °F 60.2 °F 30.07 in Calm     71.5% 0.00 in 0 W/m2
20:29 69.7 °F 60.3 °F 30.07 in Calm     72% 0.00 in 0 W/m2
20:34 69.7 °F 60.3 °F 30.07 in Calm     72% 0.00 in 0 W/m2
20:39 69.5 °F 60.1 °F 30.07 in Calm     72% 0.00 in 0 W/m2
20:44 69.4 °F 60 °F 30.07 in Calm     71.9% 0.00 in 0 W/m2
20:49 69.3 °F 59.6 °F 30.07 in Calm     71.1% 0.00 in 0 W/m2
20:54 69.3 °F 59.9 °F 30.07 in Calm     72% 0.00 in 0 W/m2
20:59 69.2 °F 59.8 °F 30.07 in Calm     72% 0.00 in 0 W/m2
21:04 69.2 °F 59.8 °F 30.07 in Calm     72% 0.00 in 0 W/m2
21:09 69.2 °F 59.8 °F 30.07 in Calm     72% 0.00 in 0 W/m2
21:14 69.1 °F 59.7 °F 30.07 in Calm     72% 0.00 in 0 W/m2
21:19 69 °F 59.6 °F 30.07 in Calm     72% 0.00 in 0 W/m2
21:24 68.9 °F 59.5 °F 30.08 in Calm     71.9% 0.00 in 0 W/m2
21:29 68.8 °F 59.3 °F 30.08 in Calm     71.6% 0.00 in 0 W/m2
21:30 68.8 °F 59.4 °F 30.08 in Calm     72% 0.00 in 0 W/m2
22:00 68.4 °F 59 °F 30.08 in Calm     72% 0.00 in 0 W/m2
22:30 67.8 °F 60 °F 30.09 in Calm     76% 0.00 in 0 W/m2
23:00 66.7 °F 59.6 °F 30.08 in Calm     78% 0.00 in 0 W/m2
23:30 65.9 °F 59.9 °F 30.08 in Calm     81% 0.00 in 0 W/m2
Hartford County Weather
Compliments of Weather Underground - 2 mb